Time;durP1;ratioP1;P1;durP2;ratioP2;P2;SDS_P1;SDS_P2;PMS_P1;PMS_P2;Temp;Humidity;BMP_temperature;BMP_pressure;BME280_temperature;BME280_humidity;BME280_pressure;Samples;Min_cycle;Max_cycle;Signal;HPM_P1;HPM_P2
2021/04/27 00:02:42;;;;;;;98.10;35.70;;;;;;;-1.21;60.56;98972.45;2258472;79;21258;-80
2021/04/27 00:05:44;;;;;;;87.27;34.20;;;;;;;-1.24;60.67;98974.83;2258438;79;21445;-81
2021/04/27 00:08:45;;;;;;;134.70;35.20;;;;;;;-1.24;60.81;98978.27;2258838;78;21207;-80
2021/04/27 00:11:46;;;;;;;91.57;33.00;;;;;;;-1.23;61.10;98969.80;2258812;79;21069;-80
2021/04/27 00:14:47;;;;;;;90.13;34.03;;;;;;;-1.20;60.84;98972.94;2258831;79;21101;-80
2021/04/27 00:17:48;;;;;;;87.07;33.00;;;;;;;-1.29;60.81;98975.84;2258559;79;21104;-80
2021/04/27 00:20:49;;;;;;;88.40;33.83;;;;;;;-1.37;60.95;98969.37;2258673;79;21121;-80
2021/04/27 00:23:50;;;;;;;92.47;33.87;;;;;;;-1.42;61.24;98966.53;2258631;79;21100;-80
2021/04/27 00:26:51;;;;;;;98.00;34.83;;;;;;;-1.43;61.55;98970.28;2258692;79;21152;-80
2021/04/27 00:29:53;;;;;;;101.17;35.83;;;;;;;-1.49;61.52;98963.52;2258607;79;21077;-80
2021/04/27 00:32:54;;;;;;;98.93;36.60;;;;;;;-1.53;61.63;98959.00;2258788;79;21136;-80
2021/04/27 00:35:55;;;;;;;105.83;39.97;;;;;;;-1.58;61.47;98958.72;2258764;79;21263;-80
2021/04/27 00:38:56;;;;;;;112.17;39.60;;;;;;;-1.65;61.56;98961.70;2258596;79;21124;-80
2021/04/27 00:41:57;;;;;;;112.33;40.73;;;;;;;-1.69;61.88;98955.90;2258647;79;21136;-80
2021/04/27 00:44:58;;;;;;;121.80;41.93;;;;;;;-1.71;62.01;98956.20;2258723;79;21141;-80
2021/04/27 00:48:02;;;;;;;110.30;40.17;;;;;;;-1.67;62.31;98955.59;2259032;79;21397;-80
2021/04/27 00:51:03;;;;;;;104.13;39.70;;;;;;;-1.71;62.32;98948.52;2258887;79;21375;-80
2021/04/27 00:54:06;;;;;;;97.83;38.57;;;;;;;-1.75;62.20;98945.25;2258643;78;21426;-80
2021/04/27 00:57:07;;;;;;;109.73;41.13;;;;;;;-1.81;62.00;98950.00;2258662;79;21104;-80
2021/04/27 01:00:08;;;;;;;115.93;40.63;;;;;;;-1.85;62.32;98948.04;2258772;79;21508;-80
2021/04/27 01:03:09;;;;;;;99.07;38.83;;;;;;;-1.89;62.43;98948.64;2258755;79;21124;-80
2021/04/27 01:06:10;;;;;;;115.90;42.70;;;;;;;-1.90;62.58;98942.64;2258672;79;21116;-80
2021/04/27 01:09:11;;;;;;;115.30;41.07;;;;;;;-1.92;62.55;98937.82;2258755;79;21100;-80
2021/04/27 01:12:12;;;;;;;115.70;44.07;;;;;;;-1.96;62.60;98940.98;2258418;79;21112;-80
2021/04/27 01:15:13;;;;;;;135.00;47.07;;;;;;;-1.97;63.01;98937.54;2258591;79;21124;-81
2021/04/27 01:18:14;;;;;;;123.33;48.03;;;;;;;-1.62;63.80;98939.73;2258853;79;21112;-80
2021/04/27 01:21:15;;;;;;;125.30;52.43;;;;;;;-1.59;63.19;98936.87;2258629;79;21100;-80
2021/04/27 01:24:16;;;;;;;113.50;46.10;;;;;;;-1.61;62.98;98937.66;2258672;79;21156;-81
2021/04/27 01:27:18;;;;;;;114.80;45.73;;;;;;;-1.63;62.93;98935.80;2258836;79;21101;-81
2021/04/27 01:30:19;;;;;;;119.17;45.60;;;;;;;-1.74;62.74;98933.83;2258903;79;21116;-81
2021/04/27 01:33:21;;;;;;;121.47;41.80;;;;;;;-1.81;62.81;98930.41;2259176;79;21132;-80
2021/04/27 01:36:22;;;;;;;113.40;43.47;;;;;;;-1.95;62.80;98935.08;2241864;78;21142;-80
2021/04/27 01:39:25;;;;;;;109.03;42.70;;;;;;;-2.08;63.04;98935.98;2227707;80;21117;-80
2021/04/27 01:42:26;;;;;;;121.50;42.37;;;;;;;-2.19;63.16;98928.44;2227692;80;21109;-81
2021/04/27 01:45:27;;;;;;;114.10;42.83;;;;;;;-2.22;63.33;98932.97;2227685;80;21256;-81
2021/04/27 01:48:28;;;;;;;112.50;41.57;;;;;;;-2.21;63.38;98927.06;2227930;80;21093;-80
2021/04/27 01:51:29;;;;;;;111.40;39.73;;;;;;;-2.23;63.41;98933.75;2227770;80;21121;-79
2021/04/27 01:54:30;;;;;;;102.00;39.63;;;;;;;-2.26;63.44;98922.05;2227119;79;21228;-80
2021/04/27 01:57:31;;;;;;;98.83;38.87;;;;;;;-2.32;63.65;98925.50;2226719;80;21228;-81
2021/04/27 02:00:32;;;;;;;92.33;37.50;;;;;;;-2.38;63.54;98930.23;2226578;80;21441;-81
2021/04/27 02:03:33;;;;;;;106.27;37.47;;;;;;;-2.46;63.47;98925.02;2226760;79;21110;-80
2021/04/27 02:06:34;;;;;;;91.97;35.40;;;;;;;-2.51;63.66;98927.69;2226527;80;21133;-80
2021/04/27 02:09:36;;;;;;;84.27;36.00;;;;;;;-2.55;63.74;98934.66;2226785;80;21387;-81
2021/04/27 02:12:37;;;;;;;160.40;38.03;;;;;;;-2.61;63.77;98929.62;2227113;80;21125;-81
2021/04/27 02:15:38;;;;;;;114.50;34.10;;;;;;;-2.61;64.09;98929.62;2227436;80;21106;-80
2021/04/27 02:18:39;;;;;;;78.80;31.50;;;;;;;-2.58;64.26;98929.84;2226838;80;21418;-80
2021/04/27 02:21:40;;;;;;;102.93;34.43;;;;;;;-2.58;64.03;98925.13;2226570;79;21134;-77
2021/04/27 02:24:41;;;;;;;96.20;33.43;;;;;;;-2.59;64.04;98924.24;2227057;80;21330;-81
2021/04/27 02:27:42;;;;;;;80.77;32.80;;;;;;;-2.58;64.02;98917.07;2226618;80;21105;-80
2021/04/27 02:30:43;;;;;;;93.93;32.83;;;;;;;-2.59;64.06;98915.30;2226739;79;21223;-80
2021/04/27 02:33:44;;;;;;;118.03;34.77;;;;;;;-2.60;63.92;98916.48;2226931;79;21102;-78
2021/04/27 02:36:45;;;;;;;112.73;34.33;;;;;;;-2.61;64.14;98917.23;2228189;79;21156;-81
2021/04/27 02:39:46;;;;;;;102.13;34.70;;;;;;;-2.52;64.35;98916.97;2227276;80;21409;-81
2021/04/27 02:42:48;;;;;;;73.00;29.70;;;;;;;-2.51;64.21;98917.45;2227602;80;21133;-81
2021/04/27 02:45:49;;;;;;;88.20;31.63;;;;;;;-2.52;63.87;98911.86;2227222;79;21145;-81
2021/04/27 02:48:51;;;;;;;84.33;29.83;;;;;;;-2.53;63.81;98920.31;2227285;79;21275;-80
2021/04/27 02:51:52;;;;;;;85.07;30.37;;;;;;;-2.57;63.91;98917.56;2227343;80;21058;-80
2021/04/27 02:54:53;;;;;;;69.50;27.90;;;;;;;-2.59;63.86;98919.14;2227223;80;21129;-82
2021/04/27 02:57:54;;;;;;;73.30;28.60;;;;;;;-2.63;63.88;98922.25;2227503;80;21078;-81
2021/04/27 03:00:55;;;;;;;76.10;27.27;;;;;;;-2.65;63.92;98922.55;2227192;80;21133;-81
2021/04/27 03:03:56;;;;;;;77.17;27.83;;;;;;;-2.67;63.99;98924.11;2227206;80;21224;-83
2021/04/27 03:06:57;;;;;;;72.40;27.57;;;;;;;-2.69;64.01;98926.08;2227198;80;21447;-82
2021/04/27 03:09:58;;;;;;;68.00;26.87;;;;;;;-2.72;64.15;98925.87;2227328;80;21117;-80
2021/04/27 03:12:59;;;;;;;58.40;25.30;;;;;;;-2.73;64.05;98929.22;2227616;80;21110;-81
2021/04/27 03:16:00;;;;;;;73.33;27.10;;;;;;;-2.70;63.89;98931.97;2227533;80;21113;-83
2021/04/27 03:19:01;;;;;;;64.10;26.20;;;;;;;-2.78;63.64;98928.04;2227414;80;21387;-82
2021/04/27 03:22:02;;;;;;;68.83;27.50;;;;;;;-2.80;63.92;98925.38;2227307;80;21124;-81
2021/04/27 03:25:03;;;;;;;93.97;29.07;;;;;;;-2.78;64.02;98927.64;2227369;80;21118;-82
2021/04/27 03:28:04;;;;;;;67.17;26.87;;;;;;;-2.72;64.15;98924.21;2227338;80;21101;-81
2021/04/27 03:31:05;;;;;;;70.23;28.40;;;;;;;-2.68;64.09;98930.01;2226897;80;21399;-80
2021/04/27 03:34:06;;;;;;;75.57;26.63;;;;;;;-2.67;64.32;98932.17;2226987;79;21086;-82
2021/04/27 03:37:07;;;;;;;80.13;28.57;;;;;;;-2.71;63.73;98931.09;2246461;79;21136;-81
2021/04/27 03:40:08;;;;;;;78.93;29.30;;;;;;;-2.75;63.86;98932.95;2258595;79;21258;-81
2021/04/27 03:43:10;;;;;;;77.13;29.77;;;;;;;-2.79;63.80;98925.87;2258683;79;21077;-81
2021/04/27 03:46:11;;;;;;;79.90;29.30;;;;;;;-2.84;64.07;98928.52;2258367;78;21144;-81
2021/04/27 03:49:12;;;;;;;68.63;27.73;;;;;;;-2.84;64.20;98931.08;2258418;78;21108;-79
2021/04/27 03:52:13;;;;;;;460.87;56.20;;;;;;;-2.84;64.20;98936.19;2258482;79;21096;-78
2021/04/27 03:55:14;;;;;;;60.37;19.37;;;;;;;-2.79;64.55;98933.94;2258699;79;21109;-81
2021/04/27 03:58:15;;;;;;;63.27;25.13;;;;;;;-1.38;74.92;98929.19;2258657;79;21077;-82
2021/04/27 04:01:16;;;;;;;55.27;24.70;;;;;;;0.48;62.40;98917.90;2258495;79;21385;-80
2021/04/27 04:04:17;;;;;;;126.33;28.13;;;;;;;-0.14;60.36;98931.67;2258399;79;21109;-81
2021/04/27 04:07:18;;;;;;;65.27;24.47;;;;;;;-0.66;60.49;98929.17;2258613;79;21105;-79
2021/04/27 04:10:19;;;;;;;58.13;23.83;;;;;;;-0.94;60.88;98939.48;2258357;79;21240;-81
2021/04/27 04:13:21;;;;;;;234.07;32.87;;;;;;;-1.09;60.95;98936.03;2258761;79;21387;-83
2021/04/27 04:16:22;;;;;;;54.23;25.77;;;;;;;-0.28;72.87;98939.02;2259568;79;21112;-83
2021/04/27 04:19:23;;;;;;;49.50;24.47;;;;;;;4.24;69.33;98924.77;2259206;79;21378;-83
2021/04/27 04:22:24;;;;;;;56.07;28.63;;;;;;;7.37;60.92;98920.22;2259120;79;21096;-82
2021/04/27 04:25:25;;;;;;;54.87;28.40;;;;;;;9.12;54.32;98919.44;2259334;79;21148;-83
2021/04/27 04:28:26;;;;;;;51.10;28.30;;;;;;;9.88;49.60;98919.05;2259048;79;21113;-83
2021/04/27 04:31:28;;;;;;;62.43;31.40;;;;;;;10.70;46.25;98908.08;2259210;78;21187;-83
2021/04/27 04:34:29;;;;;;;66.03;34.70;;;;;;;11.13;43.87;98913.36;2259154;79;21374;-80
2021/04/27 04:37:30;;;;;;;57.50;30.03;;;;;;;11.57;41.80;98909.03;2238140;79;21130;-82
2021/04/27 04:40:32;;;;;;;48.07;26.37;;;;;;;11.55;40.84;98917.29;2227424;80;21085;-82
2021/04/27 04:43:33;;;;;;;65.83;24.87;;;;;;;11.90;39.91;98918.92;2228002;80;21109;-83
2021/04/27 04:46:34;;;;;;;51.97;25.57;;;;;;;12.16;40.31;98920.45;2227274;80;21142;-82
2021/04/27 04:49:35;;;;;;;453.43;45.30;;;;;;;12.43;39.10;98914.95;2226870;79;21134;-81
2021/04/27 04:52:36;;;;;;;80.10;24.90;;;;;;;12.23;38.32;98916.58;2226368;80;21102;-81
2021/04/27 04:55:37;;;;;;;72.43;28.30;;;;;;;12.26;39.23;98913.98;2226154;80;21106;-79
2021/04/27 04:58:39;;;;;;;77.23;27.27;;;;;;;12.13;37.84;98920.84;2226138;80;21129;-80
2021/04/27 05:01:40;;;;;;;50.97;25.53;;;;;;;11.70;37.01;98919.61;2226713;80;21101;-79
2021/04/27 05:04:41;;;;;;;39.87;24.90;;;;;;;11.60;36.81;98923.00;2226295;80;21303;-79
2021/04/27 05:07:46;;;;;;;40.77;26.67;;;;;;;11.44;36.67;98928.52;2226254;80;21348;-78
2021/04/27 05:10:47;;;;;;;50.97;36.83;;;;;;;11.43;36.86;98925.47;2226734;80;21102;-82
2021/04/27 05:13:48;;;;;;;83.93;36.53;;;;;;;11.60;36.88;98928.66;2227050;80;21196;-81
2021/04/27 05:16:49;;;;;;;40.43;25.83;;;;;;;10.94;37.40;98927.95;2226937;80;21380;-81
2021/04/27 05:19:50;;;;;;;42.40;26.67;;;;;;;11.27;38.90;98923.56;2226855;79;21538;-80
2021/04/27 05:22:51;;;;;;;46.63;25.47;;;;;;;11.42;38.27;98931.55;2226938;80;21106;-80
2021/04/27 05:25:52;;;;;;;62.37;25.37;;;;;;;11.32;40.90;98935.37;2226342;79;21435;-79
2021/04/27 05:28:53;;;;;;;40.30;22.77;;;;;;;10.64;38.78;98933.67;2226638;80;21070;-82
2021/04/27 05:31:55;;;;;;;29.87;19.13;;;;;;;10.15;38.87;98942.48;2226797;79;21130;-83
2021/04/27 05:34:56;;;;;;;30.57;17.47;;;;;;;9.62;40.91;98943.81;2227202;80;21101;-81
2021/04/27 05:37:57;;;;;;;36.20;16.70;;;;;;;9.87;41.23;98947.28;2226818;79;21145;-81
2021/04/27 05:40:58;;;;;;;31.57;15.97;;;;;;;9.72;43.65;98947.45;2226760;80;21406;-82
2021/04/27 05:43:59;;;;;;;28.00;16.40;;;;;;;10.27;40.64;98945.73;2226848;80;21110;-80
2021/04/27 05:47:00;;;;;;;38.93;16.53;;;;;;;9.48;42.10;98947.88;2226861;80;21137;-82
2021/04/27 05:50:01;;;;;;;32.30;17.40;;;;;;;8.98;43.42;98944.33;2226687;80;21118;-80
2021/04/27 05:53:02;;;;;;;57.33;21.73;;;;;;;8.73;43.43;98949.05;2226898;79;21241;-81
2021/04/27 05:56:05;;;;;;;25.90;17.20;;;;;;;8.77;43.97;98953.47;2227407;80;21112;-81
2021/04/27 05:59:06;;;;;;;39.77;15.13;;;;;;;8.37;43.71;98953.00;2227297;80;21086;-81
2021/04/27 06:02:07;;;;;;;148.30;20.33;;;;;;;7.79;44.36;98958.50;2227009;80;21129;-80
2021/04/27 06:05:08;;;;;;;24.27;12.97;;;;;;;6.95;45.87;98967.56;2226842;80;21145;-81
2021/04/27 06:08:10;;;;;;;47.27;29.37;;;;;;;6.27;47.42;98976.76;2226728;80;21101;-83
2021/04/27 06:11:11;;;;;;;41.70;28.00;;;;;;;6.02;49.03;98972.91;2226780;80;21205;-80
2021/04/27 06:14:12;;;;;;;44.77;26.13;;;;;;;6.01;48.58;98971.14;2226750;79;21062;-80
2021/04/27 06:17:13;;;;;;;23.03;12.03;;;;;;;6.88;50.89;98973.38;2226573;79;21521;-80
2021/04/27 06:20:14;;;;;;;17.40;11.43;;;;;;;8.18;47.84;98969.88;2225974;80;21113;-81
2021/04/27 06:23:15;;;;;;;15.77;11.77;;;;;;;8.68;45.63;98971.91;2226541;80;21344;-82
2021/04/27 06:26:16;;;;;;;16.83;10.67;;;;;;;10.18;44.07;98974.72;2226194;80;21158;-80
2021/04/27 06:29:17;;;;;;;18.27;12.63;;;;;;;10.42;41.89;98976.00;2226575;80;21110;-82
2021/04/27 06:32:20;;;;;;;23.10;11.30;;;;;;;9.76;41.56;98975.33;2226353;80;21138;-81
2021/04/27 06:35:21;;;;;;;19.43;9.07;;;;;;;10.65;43.05;98980.23;2226009;80;21105;-80
2021/04/27 06:38:22;;;;;;;12.03;7.63;;;;;;;11.77;40.56;98978.98;2250508;79;21463;-82
2021/04/27 06:41:23;;;;;;;81.00;12.83;;;;;;;11.75;39.81;98973.25;2258003;79;21219;-79
2021/04/27 06:44:24;;;;;;;14.30;7.57;;;;;;;11.16;39.93;98975.67;2257894;79;21218;-81
2021/04/27 06:47:25;;;;;;;36.43;9.50;;;;;;;11.33;40.58;98983.73;2258211;79;21129;-81
2021/04/27 06:50:26;;;;;;;11.43;8.50;;;;;;;12.42;39.95;98973.41;2257524;79;21073;-82
2021/04/27 06:53:27;;;;;;;18.42;10.43;;;;;;;13.03;38.74;98973.77;2257860;79;21117;-81
2021/04/27 06:56:28;;;;;;;12.33;10.03;;;;;;;12.20;37.29;98974.13;2257998;79;21105;-82
2021/04/27 06:59:31;;;;;;;15.80;9.18;;;;;;;13.21;37.32;98969.48;2257375;79;21101;-83
2021/04/27 07:02:33;;;;;;;11.93;7.75;;;;;;;14.21;36.36;98968.77;2257623;79;21128;-81
2021/04/27 07:05:34;;;;;;;11.68;8.08;;;;;;;13.47;32.83;98973.06;2258085;79;21164;-81
2021/04/27 07:08:35;;;;;;;578.00;45.88;;;;;;;11.42;34.85;98975.98;2258165;79;21112;-82
2021/04/27 07:11:36;;;;;;;12.45;7.15;;;;;;;11.10;36.48;98976.02;2257424;79;21113;-80
2021/04/27 07:14:37;;;;;;;17.67;8.03;;;;;;;9.85;37.76;98984.61;2257350;79;21125;-81
2021/04/27 07:17:38;;;;;;;11.23;7.90;;;;;;;9.25;38.70;98980.02;2257943;79;21101;-82
2021/04/27 07:20:39;;;;;;;10.33;7.00;;;;;;;8.60;39.64;98978.22;2258033;79;21339;-82
2021/04/27 07:23:40;;;;;;;10.20;8.03;;;;;;;8.15;40.42;98983.23;2258012;79;21085;-82
2021/04/27 07:26:42;;;;;;;8.67;7.17;;;;;;;8.02;41.32;98982.48;2258159;79;21145;-81
2021/04/27 07:29:43;;;;;;;6.77;5.30;;;;;;;7.98;40.58;98989.33;2258205;79;21097;-80
2021/04/27 07:32:44;;;;;;;8.30;5.60;;;;;;;7.86;39.70;98983.83;2258146;79;21258;-80
2021/04/27 07:35:45;;;;;;;12.47;6.23;;;;;;;7.95;39.27;98986.66;2258212;79;21100;-82
2021/04/27 07:38:46;;;;;;;9.43;7.07;;;;;;;8.59;41.58;98977.77;2258341;79;21124;-80
2021/04/27 07:41:48;;;;;;;8.10;6.30;;;;;;;9.12;37.90;98977.60;2258218;79;21128;-80
2021/04/27 07:44:49;;;;;;;12.00;7.20;;;;;;;10.59;40.32;98970.59;2258389;79;21144;-82
2021/04/27 07:47:52;;;;;;;9.83;6.70;;;;;;;11.49;36.47;98971.27;2258445;79;21093;-82
2021/04/27 07:50:53;;;;;;;11.63;6.70;;;;;;;10.33;36.79;98975.41;2258692;79;21101;-81
2021/04/27 07:53:54;;;;;;;7.30;6.07;;;;;;;9.46;37.61;98978.23;2258702;79;21105;-81
2021/04/27 07:56:55;;;;;;;9.40;5.93;;;;;;;8.92;38.72;98981.11;2258522;79;21109;-82
2021/04/27 07:59:56;;;;;;;8.20;5.97;;;;;;;8.40;39.19;98981.69;2258616;78;21254;-81
2021/04/27 08:02:57;;;;;;;8.00;5.70;;;;;;;8.15;40.16;98980.21;2258032;79;21263;-82
2021/04/27 08:05:58;;;;;;;10.50;6.90;;;;;;;8.10;39.52;98984.84;2258419;79;21173;-81
2021/04/27 08:09:00;;;;;;;10.70;6.30;;;;;;;8.03;39.58;98981.64;2258672;79;21371;-81
2021/04/27 08:12:01;;;;;;;8.43;5.70;;;;;;;7.96;39.90;98980.61;2258484;79;21088;-81
2021/04/27 08:15:02;;;;;;;11.27;6.17;;;;;;;7.98;40.33;98978.93;2258353;79;21100;-82
2021/04/27 08:18:03;;;;;;;8.27;6.60;;;;;;;8.04;40.25;98982.98;2258470;79;21218;-82
2021/04/27 08:21:05;;;;;;;7.97;5.80;;;;;;;8.06;40.48;98982.59;2258383;79;21409;-80
2021/04/27 08:24:06;;;;;;;9.23;6.00;;;;;;;8.57;42.13;98980.75;2258228;79;21077;-81
2021/04/27 08:27:07;;;;;;;7.83;5.30;;;;;;;10.36;39.73;98975.45;2258916;79;21378;-82
2021/04/27 08:30:08;;;;;;;23.87;6.03;;;;;;;11.87;36.85;98958.13;2258267;79;21099;-81
2021/04/27 08:33:09;;;;;;;8.23;4.77;;;;;;;11.76;32.55;98967.16;2258245;79;21157;-82
2021/04/27 08:36:10;;;;;;;292.53;19.00;;;;;;;11.32;32.84;98966.30;2258333;79;21410;-80
2021/04/27 08:39:11;;;;;;;8.27;5.07;;;;;;;10.38;34.88;98970.25;2258293;79;21113;-82
2021/04/27 08:42:13;;;;;;;7.87;4.53;;;;;;;10.24;35.34;98973.09;2258697;79;21124;-82
2021/04/27 08:45:14;;;;;;;48.13;6.27;;;;;;;10.83;35.92;98968.30;2259897;79;21422;-81
2021/04/27 08:48:16;;;;;;;29.30;5.95;;;;;;;11.89;36.31;98961.20;2258895;79;21104;-81
2021/04/27 08:51:17;;;;;;;37.15;5.15;;;;;;;13.68;33.91;98961.30;2258729;79;21116;-81
2021/04/27 08:54:18;;;;;;;4.75;3.77;;;;;;;14.29;28.81;98956.08;2258683;79;21065;-83
2021/04/27 08:57:19;;;;;;;4.92;3.80;;;;;;;12.74;30.97;98960.50;2258309;79;21109;-82
2021/04/27 09:00:20;;;;;;;6.15;3.83;;;;;;;11.85;29.95;98955.50;2258254;79;21124;-81
2021/04/27 09:03:21;;;;;;;7.75;3.90;;;;;;;10.98;30.71;98957.59;2258353;79;21144;-82
2021/04/27 09:06:22;;;;;;;63.38;7.78;;;;;;;11.44;31.99;98955.97;2258630;79;21284;-80
2021/04/27 09:09:23;;;;;;;5.10;4.28;;;;;;;11.95;31.51;98954.72;2258472;78;21081;-81
2021/04/27 09:12:25;;;;;;;6.42;4.10;;;;;;;11.68;30.30;98949.22;2258521;79;21113;-81
2021/04/27 09:15:26;;;;;;;12.13;4.53;;;;;;;11.53;30.98;98952.56;2259019;79;21116;-81
2021/04/27 09:18:30;;;;;;;10.30;3.95;;;;;;;12.20;30.06;98937.92;2258272;79;21089;-80
2021/04/27 09:21:31;;;;;;;5.08;3.05;;;;;;;12.88;28.60;98940.91;2258224;79;21120;-80
2021/04/27 09:24:32;;;;;;;3.90;3.50;;;;;;;13.23;27.77;98945.47;2258191;79;21132;-80
2021/04/27 09:27:33;;;;;;;4.22;3.75;;;;;;;13.79;27.57;98940.75;2259302;79;21112;-80
2021/04/27 09:30:34;;;;;;;3.52;3.22;;;;;;;12.79;27.01;98945.23;2259778;79;21119;-80
2021/04/27 09:33:37;;;;;;;3.83;3.30;;;;;;;11.69;27.55;98946.62;2259456;79;21246;-80
2021/04/27 09:36:39;;;;;;;75.32;5.95;;;;;;;10.90;29.10;98939.66;2259857;78;21275;-79
2021/04/27 09:39:40;;;;;;;6.72;3.17;;;;;;;10.99;32.17;98944.55;2230205;79;21178;-79
2021/04/27 09:42:41;;;;;;;9.78;3.00;;;;;;;13.05;31.04;98934.46;2227980;80;21078;-80
2021/04/27 09:45:42;;;;;;;10.70;3.83;;;;;;;14.79;28.36;98926.68;2228314;80;21145;-82
2021/04/27 09:48:43;;;;;;;4.33;3.55;;;;;;;15.04;25.84;98928.33;2227603;79;21315;-78
2021/04/27 09:51:45;;;;;;;4.92;3.50;;;;;;;13.17;25.90;98930.60;2226506;80;21101;-82
2021/04/27 09:54:46;;;;;;;4.90;3.47;;;;;;;12.47;27.06;98934.17;2227353;80;21125;-81
2021/04/27 09:57:47;;;;;;;3.87;3.25;;;;;;;12.36;27.35;98937.16;2227231;80;21066;-81
2021/04/27 10:00:48;;;;;;;4.53;3.92;;;;;;;12.33;27.84;98933.22;2226939;80;21081;-81
2021/04/27 10:03:49;;;;;;;6.20;3.67;;;;;;;12.37;27.93;98929.31;2226835;80;21138;-81
2021/04/27 10:06:50;;;;;;;5.78;3.75;;;;;;;12.35;27.49;98930.17;2226816;80;21149;-80
2021/04/27 10:09:51;;;;;;;4.97;3.30;;;;;;;12.29;27.22;98923.59;2227120;80;21133;-82
2021/04/27 10:12:52;;;;;;;4.22;3.65;;;;;;;12.31;27.67;98931.89;2226972;80;21411;-82
2021/04/27 10:15:53;;;;;;;3.40;3.08;;;;;;;12.38;27.29;98925.83;2227199;80;21110;-83
2021/04/27 10:18:54;;;;;;;3.65;2.90;;;;;;;12.45;27.33;98925.43;2227430;80;21102;-80
2021/04/27 10:21:55;;;;;;;3.87;3.20;;;;;;;12.53;27.46;98920.23;2227452;80;21105;-81
2021/04/27 10:24:56;;;;;;;6.03;3.15;;;;;;;12.95;27.70;98916.92;2227162;80;21125;-82
2021/04/27 10:27:57;;;;;;;5.25;3.22;;;;;;;13.36;25.90;98919.72;2226680;80;21133;-81
2021/04/27 10:30:58;;;;;;;10.30;3.17;;;;;;;13.46;26.24;98915.37;2226943;79;21101;-81
2021/04/27 10:34:00;;;;;;;3.30;2.50;;;;;;;13.58;26.54;98913.63;2204826;80;21251;-81
2021/04/27 10:37:03;;;;;;;3.37;2.90;;;;;;;13.87;25.04;98910.14;2227335;79;21137;-83
2021/04/27 10:40:04;;;;;;;3.92;3.02;;;;;;;13.44;24.83;98914.05;2227005;79;21271;-81
2021/04/27 10:43:05;;;;;;;4.65;3.02;;;;;;;13.09;26.21;98907.39;2227028;80;21376;-82
2021/04/27 10:46:07;;;;;;;3.50;3.08;;;;;;;13.33;26.20;98900.05;2227341;80;21160;-80
2021/04/27 10:49:08;;;;;;;4.30;3.52;;;;;;;13.20;26.96;98901.77;2227277;80;21416;-81
2021/04/27 10:52:09;;;;;;;11.75;6.12;;;;;;;13.08;26.34;98902.59;2227101;80;21110;-84
2021/04/27 10:55:10;;;;;;;3.98;2.98;;;;;;;13.27;26.78;98894.36;2227270;80;21105;-82
2021/04/27 10:58:12;;;;;;;4.50;3.50;;;;;;;13.38;26.39;98889.14;2226999;80;21121;-81
2021/04/27 11:01:13;;;;;;;273.05;16.30;;;;;;;12.70;26.72;98889.33;2227015;80;21101;-82
2021/04/27 11:04:14;;;;;;;5.62;2.65;;;;;;;12.35;27.30;98884.36;2227097;80;21121;-82
2021/04/27 11:07:15;;;;;;;7.97;5.22;;;;;;;11.96;26.90;98885.84;2227505;80;21161;-83
2021/04/27 11:10:16;;;;;;;39.42;15.70;;;;;;;11.78;27.50;98883.97;2227114;80;21164;-81
2021/04/27 11:13:17;;;;;;;4.15;2.92;;;;;;;11.66;27.86;98882.53;2227183;80;21411;-82
2021/04/27 11:16:18;;;;;;;7.15;3.25;;;;;;;12.09;26.94;98879.83;2226936;80;21086;-83
2021/04/27 11:19:19;;;;;;;5.78;2.92;;;;;;;12.43;27.24;98868.27;2227374;80;21086;-80
2021/04/27 11:22:20;;;;;;;3.80;2.98;;;;;;;12.72;26.11;98874.93;2227223;80;21097;-82
2021/04/27 11:25:21;;;;;;;4.87;3.10;;;;;;;12.92;25.42;98868.45;2227069;80;21138;-82
2021/04/27 11:28:22;;;;;;;3.08;2.60;;;;;;;13.15;26.12;98868.09;2227064;80;21098;-83
2021/04/27 11:31:23;;;;;;;15.53;4.10;;;;;;;13.26;25.55;98866.41;2227693;80;21523;-86
2021/04/27 11:34:24;;;;;;;6.80;3.47;;;;;;;13.40;25.88;98863.80;2227037;80;21432;-83
2021/04/27 11:37:28;;;;;;;5.37;3.65;;;;;;;13.51;25.28;98862.48;2227989;79;21129;-82
2021/04/27 11:40:30;;;;;;;20.50;5.20;;;;;;;13.50;25.77;98858.99;2259091;79;21095;-85
2021/04/27 11:43:34;;;;;;;3.85;2.58;;;;;;;13.25;25.55;98858.53;2258966;79;21124;-81
2021/04/27 11:46:35;;;;;;;4.62;2.80;;;;;;;13.13;25.67;98859.36;2258931;79;21140;-81
2021/04/27 11:49:36;;;;;;;5.42;2.80;;;;;;;13.33;25.22;98858.11;2258754;79;21101;-82
2021/04/27 11:52:37;;;;;;;4.42;2.80;;;;;;;13.46;25.22;98851.13;2258781;79;21104;-81
2021/04/27 11:55:39;;;;;;;4.20;3.30;;;;;;;13.60;24.72;98845.01;2258941;78;21136;-83
2021/04/27 11:58:42;;;;;;;6.37;3.15;;;;;;;13.43;24.47;98846.75;2258897;79;21077;-83
2021/04/27 12:01:46;;;;;;;3.65;3.05;;;;;;;13.13;24.91;98851.93;2258740;79;21105;-82
2021/04/27 12:04:47;;;;;;;3.10;2.80;;;;;;;12.94;25.07;98844.44;2258617;79;21097;-82
2021/04/27 12:07:51;;;;;;;6.08;3.27;;;;;;;13.04;24.70;98833.14;2258995;79;21073;-82
2021/04/27 12:10:52;;;;;;;3.22;2.87;;;;;;;13.10;24.99;98831.84;2259068;79;21116;-83
2021/04/27 12:13:53;;;;;;;3.92;2.77;;;;;;;13.20;24.59;98835.37;2259183;79;21088;-82
2021/04/27 12:16:54;;;;;;;3.62;3.15;;;;;;;13.20;24.75;98833.63;2259150;79;21393;-81
2021/04/27 12:19:57;;;;;;;2.98;2.60;;;;;;;13.36;25.22;98820.09;2229972;79;21709;-82
2021/04/27 12:22:59;;;;;;;3.02;2.52;;;;;;;13.27;24.49;98826.20;2259351;78;21081;-82
2021/04/27 12:26:00;;;;;;;13.78;3.90;;;;;;;12.73;25.12;98822.55;2258849;79;21156;-82
2021/04/27 12:29:01;;;;;;;5.35;3.00;;;;;;;12.51;25.76;98808.08;2259404;79;21231;-83
2021/04/27 12:32:03;;;;;;;3.75;3.15;;;;;;;12.31;25.37;98818.04;2258694;78;21112;-81
2021/04/27 12:35:05;;;;;;;3.17;2.90;;;;;;;12.12;25.81;98818.78;2258515;79;21121;-82
2021/04/27 12:38:06;;;;;;;4.00;3.22;;;;;;;11.96;25.84;98812.59;2258731;79;21152;-82
2021/04/27 12:41:07;;;;;;;10.90;8.03;;;;;;;12.15;25.68;98811.42;2258813;78;21112;-82
2021/04/27 12:44:08;;;;;;;153.23;12.05;;;;;;;12.10;25.77;98813.98;2258490;79;21092;-83
2021/04/27 12:47:09;;;;;;;4.00;2.80;;;;;;;12.10;25.79;98816.16;2258110;79;21143;-82
2021/04/27 12:50:10;;;;;;;4.90;3.27;;;;;;;12.36;25.70;98805.84;2258493;79;21211;-82
2021/04/27 12:53:11;;;;;;;3.35;2.72;;;;;;;12.38;25.62;98801.92;2258268;79;21377;-83
2021/04/27 12:56:12;;;;;;;7.47;3.12;;;;;;;12.26;25.61;98802.75;2258484;78;21109;-82
2021/04/27 12:59:17;;;;;;;3.05;2.30;;;;;;;12.55;25.54;98804.60;2259442;78;21109;-81
2021/04/27 13:02:17;;;;;;;3.85;2.55;;;;;;;12.84;25.70;98792.45;2258732;79;21112;-80
2021/04/27 13:05:19;;;;;;;4.05;2.80;;;;;;;13.02;25.24;98792.95;2259758;78;21131;-80
2021/04/27 13:08:20;;;;;;;3.02;2.72;;;;;;;13.25;25.31;98783.39;2258976;79;21336;-81
2021/04/27 13:11:22;;;;;;;3.02;2.70;;;;;;;13.53;24.88;98779.45;2259146;79;21113;-81
2021/04/27 13:14:23;;;;;;;3.87;2.50;;;;;;;13.60;24.87;98770.26;2258963;79;21224;-82
2021/04/27 13:17:24;;;;;;;3.50;2.60;;;;;;;13.87;24.50;98773.30;2259220;79;21100;-81
2021/04/27 13:20:26;;;;;;;4.83;3.27;;;;;;;13.76;23.61;98767.61;2259557;79;21097;-82
2021/04/27 13:23:28;;;;;;;5.65;2.92;;;;;;;13.34;23.62;98765.48;2258928;79;21105;-81
2021/04/27 13:26:29;;;;;;;5.78;3.60;;;;;;;13.20;24.19;98761.55;2258680;79;21132;-82
2021/04/27 13:29:30;;;;;;;67.20;6.30;;;;;;;13.12;23.88;98759.33;2229042;79;21155;-79
2021/04/27 13:32:31;;;;;;;3.95;2.75;;;;;;;13.26;25.03;98766.80;2258288;79;21125;-82
2021/04/27 13:35:32;;;;;;;3.65;2.98;;;;;;;13.50;24.72;98757.16;2258553;78;21113;-81
2021/04/27 13:38:33;;;;;;;8.95;3.00;;;;;;;13.58;24.46;98753.66;2258763;78;21422;-80
2021/04/27 13:41:38;;;;;;;5.53;3.00;;;;;;;13.60;24.55;98752.34;2258806;79;21231;-80
2021/04/27 13:44:37;;;;;;;3.80;2.95;;;;;;;13.71;24.66;98747.51;2258546;79;21081;-81
2021/04/27 13:47:38;;;;;;;6.05;3.22;;;;;;;13.62;24.46;98747.52;2259023;79;21069;-80
2021/04/27 13:50:39;;;;;;;89.55;7.33;;;;;;;13.62;24.09;98742.28;2258700;79;21113;-83
2021/04/27 13:53:40;;;;;;;5.78;2.33;;;;;;;13.76;24.33;98738.31;2258190;79;21117;-81
2021/04/27 13:56:42;;;;;;;5.87;3.12;;;;;;;13.82;24.01;98737.42;2258592;79;21092;-83
2021/04/27 13:59:44;;;;;;;7.90;2.87;;;;;;;13.70;23.37;98733.08;2258690;78;21105;-82
2021/04/27 14:02:45;;;;;;;6.72;2.87;;;;;;;13.45;23.87;98735.31;2258706;79;21101;-80